createdAt,value
2023-05-01T00:00:09.188Z,40.09
2023-05-01T00:01:09.220Z,40.09
2023-05-01T00:02:09.263Z,40.16
2023-05-01T00:03:09.379Z,40.16
2023-05-01T00:04:09.515Z,40.18
2023-05-01T00:05:09.510Z,40.19
2023-05-01T00:06:09.530Z,40.16
2023-05-01T00:07:09.520Z,40.11
2023-05-01T00:08:09.550Z,40.12
2023-05-01T00:09:09.592Z,40.09
2023-05-01T00:10:09.623Z,40.09
2023-05-01T00:11:09.682Z,40.11
2023-05-01T00:12:09.749Z,40.15
2023-05-01T00:13:09.760Z,40.15
2023-05-01T00:14:09.768Z,40.17
2023-05-01T00:15:09.825Z,40.18
2023-05-01T00:16:09.916Z,40.14
2023-05-01T00:17:09.876Z,40.12
2023-05-01T00:18:09.926Z,40.17
2023-05-01T00:19:09.929Z,40.20
2023-05-01T00:20:09.908Z,40.22
2023-05-01T00:21:09.934Z,40.25
2023-05-01T00:22:09.968Z,40.27
2023-05-01T00:23:09.971Z,40.31
2023-05-01T00:24:10.017Z,40.31
2023-05-01T00:25:09.967Z,40.36
2023-05-01T00:26:09.960Z,40.33
2023-05-01T00:27:09.982Z,40.35
2023-05-01T00:28:10.020Z,40.36
2023-05-01T00:29:10.052Z,40.36
2023-05-01T00:30:10.039Z,40.37
2023-05-01T00:31:10.036Z,40.37
2023-05-01T00:32:10.216Z,40.39
2023-05-01T00:33:10.170Z,40.43
2023-05-01T00:34:10.078Z,40.45
2023-05-01T00:35:10.112Z,40.46
2023-05-01T00:36:10.099Z,40.48
2023-05-01T00:37:10.107Z,40.47
2023-05-01T00:38:10.124Z,40.44
2023-05-01T00:39:10.127Z,40.48
2023-05-01T00:40:10.135Z,40.53
2023-05-01T00:41:10.121Z,40.49
2023-05-01T00:42:10.152Z,40.52
2023-05-01T00:43:10.138Z,40.54
2023-05-01T00:44:10.200Z,40.63
2023-05-01T00:45:10.211Z,40.65
2023-05-01T00:46:10.241Z,40.65
2023-05-01T00:47:10.239Z,40.65
2023-05-01T00:48:10.389Z,40.70
2023-05-01T00:49:10.280Z,40.74
2023-05-01T00:50:10.299Z,40.76
2023-05-01T00:51:10.322Z,40.79
2023-05-01T00:52:10.357Z,40.80
2023-05-01T00:53:10.372Z,40.85
2023-05-01T00:54:10.362Z,40.84
2023-05-01T00:55:10.380Z,40.86
2023-05-01T00:56:10.426Z,40.89
2023-05-01T00:57:10.489Z,40.85
2023-05-01T00:58:10.502Z,40.82
2023-05-01T00:59:10.526Z,40.82
2023-05-01T01:00:10.567Z,40.86
2023-05-01T01:01:10.608Z,40.89
2023-05-01T01:02:10.609Z,40.90
2023-05-01T01:03:10.702Z,40.91
2023-05-01T01:04:10.743Z,40.97
2023-05-01T01:05:10.694Z,40.97
2023-05-01T01:06:10.820Z,40.99
2023-05-01T01:07:10.751Z,41.00
2023-05-01T01:08:10.819Z,41.04
2023-05-01T01:09:10.846Z,41.08
2023-05-01T01:10:10.882Z,41.09
2023-05-01T01:11:10.907Z,41.13
2023-05-01T01:12:10.958Z,41.09
2023-05-01T01:13:10.985Z,40.98
2023-05-01T01:14:11.004Z,40.95
2023-05-01T01:15:11.071Z,40.96
2023-05-01T01:16:11.109Z,40.94
2023-05-01T01:17:11.157Z,40.93
2023-05-01T01:18:11.210Z,40.92
2023-05-01T01:19:11.171Z,40.96
2023-05-01T01:20:11.230Z,40.94
2023-05-01T01:21:11.237Z,40.97
2023-05-01T01:22:11.298Z,41.00
2023-05-01T01:23:11.320Z,41.07
2023-05-01T01:24:11.338Z,41.08
2023-05-01T01:25:11.397Z,41.09
2023-05-01T01:26:11.408Z,41.05
2023-05-01T01:27:11.432Z,41.08
2023-05-01T01:28:11.473Z,41.10
2023-05-01T01:29:11.536Z,41.12
2023-05-01T01:30:11.514Z,41.18
2023-05-01T01:31:11.590Z,41.17
2023-05-01T01:32:11.567Z,41.17
2023-05-01T01:33:11.627Z,41.19
2023-05-01T01:34:11.635Z,41.19
2023-05-01T01:35:11.674Z,41.19
2023-05-01T01:36:11.699Z,41.13
2023-05-01T01:37:11.757Z,41.18
2023-05-01T01:38:11.707Z,41.17
2023-05-01T01:39:11.745Z,41.20
2023-05-01T01:40:11.757Z,41.21
2023-05-01T01:41:11.758Z,41.20
2023-05-01T01:42:11.780Z,41.19
2023-05-01T01:43:11.822Z,41.20
2023-05-01T01:44:12.042Z,41.19
2023-05-01T01:45:11.894Z,41.24
2023-05-01T01:46:11.961Z,41.30
2023-05-01T01:47:11.932Z,41.34
2023-05-01T01:48:11.989Z,41.36
2023-05-01T01:49:11.966Z,41.42
2023-05-01T01:50:11.985Z,41.38
2023-05-01T01:51:12.026Z,41.39
2023-05-01T01:52:12.016Z,41.45
2023-05-01T01:53:12.105Z,41.46
2023-05-01T01:54:12.098Z,41.53
2023-05-01T01:55:12.149Z,41.59
2023-05-01T01:56:12.173Z,41.61
2023-05-01T01:57:12.165Z,41.61
2023-05-01T01:58:12.188Z,41.64
2023-05-01T01:59:12.188Z,41.69
2023-05-01T02:00:12.243Z,41.74
2023-05-01T02:01:12.305Z,41.65
2023-05-01T02:02:12.362Z,41.59
2023-05-01T02:03:12.433Z,41.60
2023-05-01T02:04:12.370Z,41.49
2023-05-01T02:05:12.387Z,41.42
2023-05-01T02:06:12.444Z,41.34
2023-05-01T02:07:12.467Z,41.37
2023-05-01T02:08:12.510Z,41.37
2023-05-01T02:09:12.546Z,41.36
2023-05-01T02:10:12.586Z,41.49
2023-05-01T02:11:12.609Z,41.50
2023-05-01T02:12:12.668Z,41.47
2023-05-01T02:13:12.667Z,41.45
2023-05-01T02:14:12.729Z,41.39
2023-05-01T02:15:12.753Z,41.34
2023-05-01T02:16:12.913Z,41.33
2023-05-01T02:17:12.853Z,41.27
2023-05-01T02:18:12.889Z,41.29
2023-05-01T02:19:12.930Z,41.31
2023-05-01T02:20:12.948Z,41.31
2023-05-01T02:21:12.961Z,41.29
2023-05-01T02:22:13.023Z,41.30
2023-05-01T02:23:13.072Z,41.31
2023-05-01T02:24:13.105Z,41.45
2023-05-01T02:25:13.153Z,41.54
2023-05-01T02:26:13.221Z,41.55
2023-05-01T02:27:13.219Z,41.51
2023-05-01T02:28:13.265Z,41.57
2023-05-01T02:29:13.310Z,41.52
2023-05-01T02:30:13.370Z,41.55
2023-05-01T02:31:13.415Z,41.59
2023-05-01T02:32:13.575Z,41.58
2023-05-01T02:33:13.502Z,41.62
2023-05-01T02:34:13.629Z,41.63
2023-05-01T02:35:13.596Z,41.63
2023-05-01T02:36:13.648Z,41.63
2023-05-01T02:37:13.699Z,41.62
2023-05-01T02:38:13.735Z,41.61
2023-05-01T02:39:13.804Z,41.61
2023-05-01T02:40:13.858Z,41.66
2023-05-01T02:41:13.908Z,41.70
2023-05-01T02:42:13.962Z,41.75
2023-05-01T02:43:13.976Z,41.76
2023-05-01T02:44:14.018Z,41.80
2023-05-01T02:45:14.053Z,41.83
2023-05-01T02:46:14.158Z,41.87
2023-05-01T02:47:14.202Z,41.91
2023-05-01T02:48:14.245Z,41.99
2023-05-01T02:49:14.241Z,41.98
2023-05-01T02:50:14.997Z,41.98
2023-05-01T02:51:14.358Z,41.96
2023-05-01T02:52:14.411Z,41.99
2023-05-01T02:53:14.431Z,41.97
2023-05-01T02:54:14.516Z,42.00
2023-05-01T02:55:14.535Z,41.98
2023-05-01T02:56:14.559Z,42.04
2023-05-01T02:57:14.608Z,42.02
2023-05-01T02:58:14.648Z,41.98
2023-05-01T02:59:14.695Z,42.01
2023-05-01T03:00:14.775Z,42.01
2023-05-01T03:01:14.887Z,42.05
2023-05-01T03:02:14.853Z,42.01
2023-05-01T03:03:15.035Z,42.01
2023-05-01T03:04:15.042Z,41.96
2023-05-01T03:05:14.981Z,41.93
2023-05-01T03:06:15.084Z,41.84
2023-05-01T03:07:15.099Z,41.81
2023-05-01T03:08:15.126Z,41.81
2023-05-01T03:09:15.146Z,41.80
2023-05-01T03:10:15.171Z,41.81
2023-05-01T03:11:15.209Z,41.80
2023-05-01T03:12:15.266Z,41.82
2023-05-01T03:13:15.314Z,41.83
2023-05-01T03:14:15.333Z,41.84
2023-05-01T03:15:15.381Z,41.87
2023-05-01T03:16:15.530Z,41.88
2023-05-01T03:17:15.518Z,41.88
2023-05-01T03:18:15.540Z,41.88
2023-05-01T03:19:15.592Z,41.87
2023-05-01T03:20:15.655Z,41.83
2023-05-01T03:21:15.702Z,41.79
2023-05-01T03:22:15.727Z,41.83
2023-05-01T03:23:15.801Z,41.84
2023-05-01T03:24:15.892Z,41.85
2023-05-01T03:25:15.927Z,41.89
2023-05-01T03:26:15.914Z,41.92
2023-05-01T03:27:15.974Z,41.98
2023-05-01T03:28:16.006Z,41.93
2023-05-01T03:29:16.061Z,41.91
2023-05-01T03:30:16.140Z,41.89
2023-05-01T03:31:16.171Z,41.83
2023-05-01T03:32:16.242Z,41.82
2023-05-01T03:33:16.308Z,41.85
2023-05-01T03:34:16.309Z,41.82
2023-05-01T03:35:16.421Z,41.81
2023-05-01T03:36:16.448Z,41.84
2023-05-01T03:37:16.471Z,41.84
2023-05-01T03:38:16.520Z,41.85
2023-05-01T03:39:16.550Z,41.87
2023-05-01T03:40:16.613Z,41.89
2023-05-01T03:41:16.629Z,41.90
2023-05-01T03:42:16.685Z,41.90
2023-05-01T03:43:16.734Z,41.88
2023-05-01T03:44:16.804Z,41.92
2023-05-01T03:45:16.865Z,41.94
2023-05-01T03:46:16.973Z,41.96
2023-05-01T03:47:16.962Z,41.95
2023-05-01T03:48:16.988Z,41.93
2023-05-01T03:49:17.076Z,41.93
2023-05-01T03:50:17.077Z,41.85
2023-05-01T03:51:17.147Z,41.87
2023-05-01T03:52:17.213Z,41.86
2023-05-01T03:53:17.274Z,41.90
2023-05-01T03:54:17.317Z,41.93
2023-05-01T03:55:17.328Z,41.92
2023-05-01T03:56:17.382Z,42.00
2023-05-01T03:57:17.488Z,42.07
2023-05-01T03:58:17.526Z,42.09
2023-05-01T03:59:17.563Z,42.14
2023-05-01T04:00:17.630Z,42.21
2023-05-01T04:01:17.684Z,42.31
2023-05-01T04:02:17.786Z,42.35
2023-05-01T04:03:17.903Z,42.35
2023-05-01T04:04:17.863Z,42.34
2023-05-01T04:05:17.900Z,42.41
2023-05-01T04:06:18.007Z,42.41
2023-05-01T04:07:18.036Z,42.47
2023-05-01T04:08:18.073Z,42.50
2023-05-01T04:09:18.150Z,42.58
2023-05-01T04:10:18.204Z,42.64
2023-05-01T04:11:18.224Z,42.68
2023-05-01T04:12:18.284Z,42.74
2023-05-01T04:13:18.324Z,42.75
2023-05-01T04:14:18.368Z,42.70
2023-05-01T04:15:18.422Z,42.60
2023-05-01T04:16:18.561Z,42.56
2023-05-01T04:17:18.574Z,42.54
2023-05-01T04:18:18.608Z,42.52
2023-05-01T04:19:18.635Z,42.49
2023-05-01T04:20:18.689Z,42.45
2023-05-01T04:21:18.768Z,42.41
2023-05-01T04:22:18.816Z,42.38
2023-05-01T04:23:18.864Z,42.31
2023-05-01T04:24:18.902Z,42.28
2023-05-01T04:25:18.967Z,42.27
2023-05-01T04:26:19.003Z,42.27
2023-05-01T04:27:19.082Z,42.32
2023-05-01T04:28:19.128Z,42.34
2023-05-01T04:29:19.180Z,42.35
2023-05-01T04:30:19.212Z,42.37
2023-05-01T04:31:19.306Z,42.36
2023-05-01T04:32:19.352Z,42.39
2023-05-01T04:33:19.371Z,42.55
2023-05-01T04:34:19.443Z,42.58
2023-05-01T04:35:19.494Z,42.63
2023-05-01T04:36:19.533Z,42.58
2023-05-01T04:37:19.617Z,42.58
2023-05-01T04:38:19.646Z,42.65
2023-05-01T04:39:19.717Z,42.63
2023-05-01T04:40:19.797Z,42.68
2023-05-01T04:41:19.843Z,42.67
2023-05-01T04:42:19.921Z,42.62
2023-05-01T04:43:19.927Z,42.77
2023-05-01T04:44:19.989Z,42.77
2023-05-01T04:45:20.040Z,42.77
2023-05-01T04:46:20.108Z,42.79
2023-05-01T04:47:20.128Z,42.77
2023-05-01T04:48:20.219Z,42.76
2023-05-01T04:49:20.249Z,42.76
2023-05-01T04:50:20.316Z,42.69
2023-05-01T04:51:20.468Z,42.69
2023-05-01T04:52:20.403Z,42.67
2023-05-01T04:53:20.467Z,42.69
2023-05-01T04:54:20.497Z,42.72
2023-05-01T04:55:20.558Z,42.72
2023-05-01T04:56:20.613Z,42.83
2023-05-01T04:57:20.639Z,42.80
2023-05-01T04:58:20.710Z,42.73
2023-05-01T04:59:20.782Z,42.68
2023-05-01T05:00:20.807Z,42.64
2023-05-01T05:01:20.873Z,42.63
2023-05-01T05:02:20.988Z,42.66
2023-05-01T05:03:21.028Z,42.72
2023-05-01T05:04:20.983Z,42.75
2023-05-01T05:05:21.047Z,42.70
2023-05-01T05:06:21.175Z,42.68
2023-05-01T05:07:21.185Z,42.64
2023-05-01T05:08:21.204Z,42.69
2023-05-01T05:09:21.264Z,42.68
2023-05-01T05:10:21.336Z,42.71
2023-05-01T05:11:21.385Z,42.67
2023-05-01T05:12:21.443Z,42.69
2023-05-01T05:13:21.489Z,42.70
2023-05-01T05:14:21.558Z,42.72
2023-05-01T05:15:21.580Z,42.75
2023-05-01T05:16:21.662Z,42.76
2023-05-01T05:17:21.661Z,42.78
2023-05-01T05:18:21.774Z,42.68
2023-05-01T05:19:21.795Z,42.65
2023-05-01T05:20:21.852Z,42.68
2023-05-01T05:21:21.900Z,42.73
2023-05-01T05:22:21.932Z,42.79
2023-05-01T05:23:21.966Z,42.87
2023-05-01T05:24:21.966Z,42.92
2023-05-01T05:25:21.984Z,43.01
2023-05-01T05:26:21.976Z,43.03
2023-05-01T05:27:22.015Z,43.11
2023-05-01T05:28:22.205Z,43.09
2023-05-01T05:29:22.028Z,43.16
2023-05-01T05:30:22.082Z,43.25
2023-05-01T05:31:22.093Z,43.29
2023-05-01T05:32:22.231Z,43.29
2023-05-01T05:33:22.143Z,43.22
2023-05-01T05:34:22.170Z,43.18
2023-05-01T05:35:22.244Z,43.12
2023-05-01T05:36:22.253Z,43.02
2023-05-01T05:37:22.344Z,42.95
2023-05-01T05:38:22.373Z,42.96
2023-05-01T05:39:22.436Z,42.97
2023-05-01T05:40:22.505Z,42.95
2023-05-01T05:41:22.537Z,42.97
2023-05-01T05:42:22.611Z,42.99
2023-05-01T05:43:22.638Z,43.03
2023-05-01T05:44:22.694Z,42.95
2023-05-01T05:45:22.751Z,42.88
2023-05-01T05:46:22.828Z,42.91
2023-05-01T05:47:22.867Z,42.86
2023-05-01T05:48:23.140Z,42.92
2023-05-01T05:49:22.953Z,42.85
2023-05-01T05:50:23.024Z,42.78
2023-05-01T05:51:23.082Z,42.77
2023-05-01T05:52:23.123Z,42.75
2023-05-01T05:53:25.733Z,42.77
2023-05-01T05:54:23.166Z,42.72
2023-05-01T05:55:23.149Z,42.68
2023-05-01T05:56:23.147Z,42.69
2023-05-01T05:57:23.168Z,42.67
2023-05-01T05:58:23.184Z,42.66
2023-05-01T05:59:23.154Z,42.65
2023-05-01T06:00:23.165Z,42.62
2023-05-01T06:01:23.128Z,42.65
2023-05-01T06:02:23.236Z,42.75
2023-05-01T06:04:23.094Z,42.70
2023-05-01T06:05:23.177Z,42.65
2023-05-01T06:06:23.110Z,42.63
2023-05-01T06:07:23.075Z,42.65
2023-05-01T06:08:23.101Z,42.69
2023-05-01T06:09:23.077Z,42.77
2023-05-01T06:10:23.044Z,42.78
2023-05-01T06:11:23.087Z,42.77
2023-05-01T06:12:23.087Z,42.73
2023-05-01T06:13:23.079Z,42.75
2023-05-01T06:14:23.033Z,42.78
2023-05-01T06:15:23.010Z,42.73
2023-05-01T06:16:23.033Z,42.81
2023-05-01T06:17:23.053Z,42.87
2023-05-01T06:18:23.038Z,42.93
2023-05-01T06:19:23.013Z,42.91
2023-05-01T06:20:22.997Z,42.94
2023-05-01T06:21:23.000Z,43.03
2023-05-01T06:22:23.004Z,42.99
2023-05-01T06:23:23.000Z,42.95
2023-05-01T06:24:22.985Z,42.82
2023-05-01T06:25:22.941Z,42.82
2023-05-01T06:26:22.981Z,42.84
2023-05-01T06:27:22.977Z,42.85
2023-05-01T06:28:22.931Z,42.83
2023-05-01T06:29:22.944Z,42.74
2023-05-01T06:30:22.921Z,42.72
2023-05-01T06:31:22.960Z,42.69
2023-05-01T06:32:22.964Z,42.62
2023-05-01T06:33:22.879Z,42.60
2023-05-01T06:34:22.897Z,42.66
2023-05-01T06:35:22.881Z,42.61
2023-05-01T06:36:22.901Z,42.60
2023-05-01T06:37:22.951Z,42.63
2023-05-01T06:38:23.979Z,42.57
2023-05-01T06:39:23.208Z,42.56
2023-05-01T06:40:23.227Z,42.57
2023-05-01T06:41:23.267Z,42.74
2023-05-01T06:42:23.320Z,42.77
2023-05-01T06:43:23.322Z,42.80
2023-05-01T06:44:23.355Z,42.70
2023-05-01T06:45:23.387Z,42.66
2023-05-01T06:46:23.409Z,42.71
2023-05-01T06:47:23.488Z,42.70
2023-05-01T06:48:23.589Z,42.65
2023-05-01T06:49:23.522Z,42.68
2023-05-01T06:50:23.567Z,42.67
2023-05-01T06:51:23.588Z,42.63
2023-05-01T06:52:23.628Z,42.58
2023-05-01T06:53:23.642Z,42.54
2023-05-01T06:54:23.678Z,42.53
2023-05-01T06:55:23.672Z,42.57
2023-05-01T06:56:23.690Z,42.56
2023-05-01T06:57:23.703Z,42.46
2023-05-01T06:58:24.580Z,42.40
2023-05-01T06:59:23.742Z,42.37
2023-05-01T07:00:23.795Z,42.38
2023-05-01T07:01:23.860Z,42.37
2023-05-01T07:02:23.906Z,42.50
2023-05-01T07:03:23.859Z,42.46
2023-05-01T07:04:23.865Z,42.43
2023-05-01T07:05:23.877Z,42.41
2023-05-01T07:06:23.985Z,42.42
2023-05-01T07:07:23.960Z,42.37
2023-05-01T07:08:23.995Z,42.28
2023-05-01T07:09:23.946Z,42.26
2023-05-01T07:10:23.983Z,42.25
2023-05-01T07:11:23.988Z,42.25
2023-05-01T07:12:24.009Z,42.27
2023-05-01T07:13:24.059Z,42.24
2023-05-01T07:14:24.038Z,42.22
2023-05-01T07:15:24.058Z,42.23
2023-05-01T07:16:24.181Z,42.25
2023-05-01T07:17:24.152Z,42.31
2023-05-01T07:18:24.075Z,42.42
2023-05-01T07:19:24.100Z,42.43
2023-05-01T07:20:24.127Z,42.43
2023-05-01T07:21:24.162Z,42.46
2023-05-01T07:22:24.146Z,42.46
2023-05-01T07:23:24.176Z,42.43
2023-05-01T07:24:24.175Z,42.36
2023-05-01T07:25:24.166Z,42.38
2023-05-01T07:26:24.175Z,42.30
2023-05-01T07:27:24.175Z,42.26
2023-05-01T07:28:24.205Z,42.25
2023-05-01T07:29:24.183Z,42.24
2023-05-01T07:30:24.232Z,42.16
2023-05-01T07:31:24.261Z,42.04
2023-05-01T07:32:24.284Z,42.04
2023-05-01T07:33:24.383Z,42.07
2023-05-01T07:34:24.327Z,42.15
2023-05-01T07:35:24.326Z,42.12
2023-05-01T07:36:24.371Z,42.08
2023-05-01T07:37:24.372Z,42.12
2023-05-01T07:38:24.396Z,42.08
2023-05-01T07:39:24.411Z,42.09
2023-05-01T07:40:24.427Z,42.20
2023-05-01T07:41:24.454Z,42.32
2023-05-01T07:42:24.521Z,42.29
2023-05-01T07:43:24.555Z,42.16
2023-05-01T07:44:24.558Z,42.21
2023-05-01T07:45:24.596Z,42.21
2023-05-01T07:46:24.675Z,42.10
2023-05-01T07:47:24.751Z,42.03
2023-05-01T07:48:24.690Z,41.98
2023-05-01T07:49:24.717Z,41.93
2023-05-01T07:50:24.861Z,41.90
2023-05-01T07:51:24.830Z,41.88
2023-05-01T07:52:24.914Z,41.87
2023-05-01T07:53:24.947Z,41.87
2023-05-01T07:54:24.982Z,41.89
2023-05-01T07:55:25.008Z,41.88
2023-05-01T07:56:25.083Z,41.90
2023-05-01T07:57:25.107Z,41.81
2023-05-01T07:58:25.187Z,41.78
2023-05-01T07:59:25.235Z,41.76
2023-05-01T08:00:25.263Z,41.73
2023-05-01T08:01:25.339Z,41.71
2023-05-01T08:02:25.491Z,41.66
2023-05-01T08:03:25.540Z,41.53
2023-05-01T08:04:25.520Z,41.43
2023-05-01T08:05:25.505Z,41.43
2023-05-01T08:06:25.593Z,41.36
2023-05-01T08:07:25.594Z,41.42
2023-05-01T08:08:25.624Z,41.45
2023-05-01T08:09:25.664Z,41.44
2023-05-01T08:10:25.711Z,41.34
2023-05-01T08:11:25.769Z,41.29
2023-05-01T08:12:25.823Z,41.28
2023-05-01T08:13:25.850Z,41.26
2023-05-01T08:14:25.882Z,41.27
2023-05-01T08:15:25.928Z,41.22
2023-05-01T08:16:26.023Z,41.19
2023-05-01T08:17:26.086Z,41.14
2023-05-01T08:18:26.070Z,41.22
2023-05-01T08:19:26.087Z,41.22
2023-05-01T08:20:26.152Z,41.15
2023-05-01T08:21:26.190Z,41.16
2023-05-01T08:22:26.244Z,41.14
2023-05-01T08:23:26.274Z,41.20
2023-05-01T08:24:26.321Z,41.14
2023-05-01T08:25:26.354Z,41.10
2023-05-01T08:26:26.380Z,41.17
2023-05-01T08:27:26.460Z,41.13
2023-05-01T08:28:26.467Z,41.12
2023-05-01T08:29:26.516Z,41.11
2023-05-01T08:30:26.573Z,41.07
2023-05-01T08:31:26.636Z,40.94
2023-05-01T08:32:26.674Z,40.90
2023-05-01T08:33:26.691Z,40.98
2023-05-01T08:34:26.725Z,41.04
2023-05-01T08:35:26.766Z,41.07
2023-05-01T08:36:26.782Z,41.05
2023-05-01T08:37:26.843Z,41.04
2023-05-01T08:38:26.891Z,40.95
2023-05-01T08:39:26.902Z,40.93
2023-05-01T08:40:26.949Z,40.96
2023-05-01T08:41:27.020Z,40.98
2023-05-01T08:42:27.044Z,40.90
2023-05-01T08:43:27.055Z,40.86
2023-05-01T08:44:27.085Z,40.76
2023-05-01T08:45:27.102Z,40.73
2023-05-01T08:46:27.190Z,40.67
2023-05-01T08:47:27.200Z,40.62
2023-05-01T08:48:27.187Z,40.58
2023-05-01T08:49:27.198Z,40.56
2023-05-01T08:50:27.238Z,40.63
2023-05-01T08:51:27.237Z,40.61
2023-05-01T08:52:27.291Z,40.61
2023-05-01T08:53:27.348Z,40.63
2023-05-01T08:54:27.352Z,40.58
2023-05-01T08:55:27.360Z,40.57
2023-05-01T08:56:27.364Z,40.50
2023-05-01T08:57:27.409Z,40.42
2023-05-01T08:58:27.422Z,40.41
2023-05-01T08:59:27.427Z,40.38
2023-05-01T09:00:27.484Z,40.39
2023-05-01T09:01:27.519Z,40.38
2023-05-01T09:02:27.519Z,40.40
2023-05-01T09:03:27.557Z,40.45
2023-05-01T09:04:27.555Z,40.39
2023-05-01T09:05:27.565Z,40.42
2023-05-01T09:06:27.599Z,40.43
2023-05-01T09:07:27.585Z,40.43
2023-05-01T09:08:27.628Z,40.41
2023-05-01T09:09:27.629Z,40.47
2023-05-01T09:10:27.659Z,40.58
2023-05-01T09:11:27.664Z,40.53
2023-05-01T09:12:27.774Z,40.60
2023-05-01T09:13:27.676Z,40.52
2023-05-01T09:14:27.717Z,40.47
2023-05-01T09:15:27.739Z,40.51
2023-05-01T09:16:27.760Z,40.52
2023-05-01T09:17:27.779Z,40.54
2023-05-01T09:18:27.768Z,40.59
2023-05-01T09:19:27.770Z,40.64
2023-05-01T09:20:27.786Z,40.60
2023-05-01T09:21:27.812Z,40.57
2023-05-01T09:22:27.859Z,40.60
2023-05-01T09:23:27.871Z,40.50
2023-05-01T09:24:27.869Z,40.46
2023-05-01T09:25:27.866Z,40.48
2023-05-01T09:26:27.875Z,40.47
2023-05-01T09:27:27.934Z,40.52
2023-05-01T09:28:27.900Z,40.48
2023-05-01T09:29:27.909Z,40.53
2023-05-01T09:30:27.912Z,40.49
2023-05-01T09:31:28.006Z,40.50
2023-05-01T09:32:28.022Z,40.46
2023-05-01T09:33:27.986Z,40.45
2023-05-01T09:34:27.965Z,40.38
2023-05-01T09:35:27.952Z,40.39
2023-05-01T09:36:27.997Z,40.35
2023-05-01T09:37:28.020Z,40.33
2023-05-01T09:38:28.007Z,40.35
2023-05-01T09:39:28.016Z,40.34
2023-05-01T09:40:28.015Z,40.35
2023-05-01T09:41:28.017Z,40.31
2023-05-01T09:42:28.034Z,40.30
2023-05-01T09:43:28.053Z,40.25
2023-05-01T09:44:28.040Z,40.25
2023-05-01T09:45:28.047Z,40.21
2023-05-01T09:46:28.129Z,40.25
2023-05-01T09:47:28.185Z,40.24
2023-05-01T09:48:28.076Z,40.29
2023-05-01T09:49:28.108Z,40.29
2023-05-01T09:50:28.139Z,40.29
2023-05-01T09:51:28.121Z,40.31
2023-05-01T09:52:28.160Z,40.34
2023-05-01T09:53:28.146Z,40.45
2023-05-01T09:54:28.152Z,40.46
2023-05-01T09:55:28.153Z,40.50
2023-05-01T09:56:28.174Z,40.48
2023-05-01T09:57:28.191Z,40.58
2023-05-01T09:58:28.182Z,40.49
2023-05-01T09:59:28.180Z,40.51
2023-05-01T10:00:28.199Z,40.48
2023-05-01T10:01:28.341Z,40.45
2023-05-01T10:02:28.325Z,40.43
2023-05-01T10:03:28.431Z,40.37
2023-05-01T10:04:28.367Z,40.33
2023-05-01T10:05:28.409Z,40.31
2023-05-01T10:06:28.457Z,40.33
2023-05-01T10:07:28.526Z,40.45
2023-05-01T10:08:28.557Z,40.53
2023-05-01T10:09:28.650Z,40.41
2023-05-01T10:10:28.665Z,40.43
2023-05-01T10:11:28.701Z,40.43
2023-05-01T10:12:28.738Z,40.51
2023-05-01T10:13:28.792Z,40.45
2023-05-01T10:14:28.890Z,40.45
2023-05-01T10:15:28.908Z,40.43
2023-05-01T10:16:28.942Z,40.44
2023-05-01T10:17:29.004Z,40.41
2023-05-01T10:18:29.048Z,40.40
2023-05-01T10:19:29.046Z,40.39
2023-05-01T10:20:29.089Z,40.55
2023-05-01T10:21:29.127Z,40.49
2023-05-01T10:22:29.181Z,40.45
2023-05-01T10:23:29.224Z,40.43
2023-05-01T10:24:29.264Z,40.40
2023-05-01T10:25:29.303Z,40.40
2023-05-01T10:26:29.335Z,40.36
2023-05-01T10:27:29.343Z,40.31
2023-05-01T10:28:29.397Z,40.29
2023-05-01T10:29:29.414Z,40.27
2023-05-01T10:30:29.468Z,40.25
2023-05-01T10:31:29.593Z,40.19
2023-05-01T10:32:29.539Z,40.20
2023-05-01T10:33:29.546Z,40.13
2023-05-01T10:34:29.563Z,40.12
2023-05-01T10:35:29.598Z,40.11
2023-05-01T10:36:29.568Z,40.11
2023-05-01T10:37:29.598Z,40.08
2023-05-01T10:38:29.652Z,40.06
2023-05-01T10:39:29.646Z,40.06
2023-05-01T10:40:29.638Z,40.08
2023-05-01T10:41:29.675Z,40.09
2023-05-01T10:42:29.723Z,40.05
2023-05-01T10:43:29.698Z,40.07
2023-05-01T10:44:29.684Z,40.02
2023-05-01T10:45:29.763Z,40.01
2023-05-01T10:46:29.851Z,40.03
2023-05-01T10:47:29.769Z,40.03
2023-05-01T10:48:29.775Z,40.03
2023-05-01T10:49:29.799Z,40.00
2023-05-01T10:50:29.794Z,39.95
2023-05-01T10:51:29.787Z,39.92
2023-05-01T10:52:29.789Z,39.90
2023-05-01T10:53:29.796Z,39.84
2023-05-01T10:54:29.823Z,39.87
2023-05-01T10:55:29.865Z,39.85
2023-05-01T10:56:29.905Z,39.83
2023-05-01T10:57:29.892Z,39.83
2023-05-01T10:58:29.903Z,39.83
2023-05-01T10:59:29.932Z,39.79
2023-05-01T11:00:29.914Z,39.81
2023-05-01T11:01:30.001Z,39.76
2023-05-01T11:02:29.978Z,39.75
2023-05-01T11:03:30.045Z,39.74
2023-05-01T11:04:30.035Z,39.71
2023-05-01T11:05:38.197Z,39.73
2023-05-01T11:06:31.186Z,39.70
2023-05-01T11:07:30.055Z,39.67
2023-05-01T11:08:30.063Z,39.65
2023-05-01T11:09:30.073Z,39.63
2023-05-01T11:10:30.039Z,39.63
2023-05-01T11:11:30.045Z,39.64
2023-05-01T11:12:30.045Z,39.68
2023-05-01T11:13:30.102Z,39.65
2023-05-01T11:14:30.033Z,39.70
2023-05-01T11:15:30.019Z,39.71
2023-05-01T11:16:30.009Z,39.65
2023-05-01T11:17:30.093Z,39.66
2023-05-01T11:18:30.136Z,39.66
2023-05-01T11:19:30.143Z,39.71
2023-05-01T11:20:30.200Z,39.67
2023-05-01T11:21:30.251Z,39.63
2023-05-01T11:22:30.320Z,39.62
2023-05-01T11:23:30.374Z,39.61
2023-05-01T11:24:30.435Z,39.60
2023-05-01T11:25:30.499Z,39.60
2023-05-01T11:26:32.386Z,39.62
2023-05-01T11:27:30.589Z,39.53
2023-05-01T11:28:30.668Z,39.51
2023-05-01T11:29:30.724Z,39.42
2023-05-01T11:30:30.735Z,39.45
2023-05-01T11:31:30.813Z,39.41
2023-05-01T11:32:30.908Z,39.41
2023-05-01T11:33:30.920Z,39.42
2023-05-01T11:34:30.957Z,39.46
2023-05-01T11:35:30.996Z,39.51
2023-05-01T11:36:31.038Z,39.70
2023-05-01T11:37:31.091Z,39.69
2023-05-01T11:38:31.118Z,39.58
2023-05-01T11:39:31.140Z,39.60
2023-05-01T11:40:31.190Z,39.55
2023-05-01T11:41:31.266Z,39.51
2023-05-01T11:42:31.360Z,39.39
2023-05-01T11:43:31.333Z,39.38
2023-05-01T11:44:31.388Z,39.39
2023-05-01T11:45:31.456Z,39.39
2023-05-01T11:46:31.585Z,39.38
2023-05-01T11:47:31.499Z,39.36
2023-05-01T11:48:31.519Z,39.32
2023-05-01T11:49:31.581Z,39.33
2023-05-01T11:50:31.591Z,39.25
2023-05-01T11:51:31.658Z,39.27
2023-05-01T11:52:31.687Z,39.29
2023-05-01T11:53:31.764Z,39.22
2023-05-01T11:54:31.754Z,39.19
2023-05-01T11:55:31.829Z,39.19
2023-05-01T11:56:31.879Z,39.19
2023-05-01T11:57:31.889Z,39.21
2023-05-01T11:58:31.940Z,39.21
2023-05-01T11:59:32.000Z,39.20
2023-05-01T12:00:31.983Z,39.22
2023-05-01T12:01:32.031Z,39.19
2023-05-01T12:02:32.233Z,39.19
2023-05-01T12:03:32.260Z,39.16
2023-05-01T12:04:32.610Z,39.17
2023-05-01T12:05:32.197Z,39.16
2023-05-01T12:06:32.302Z,39.16
2023-05-01T12:07:32.249Z,39.10
2023-05-01T12:08:32.270Z,39.06
2023-05-01T12:09:32.338Z,39.03
2023-05-01T12:10:34.726Z,39.01
2023-05-01T12:11:32.371Z,38.99
2023-05-01T12:12:32.354Z,38.96
2023-05-01T12:13:32.335Z,38.97
2023-05-01T12:14:32.337Z,38.94
2023-05-01T12:15:32.329Z,38.96
2023-05-01T12:16:32.370Z,38.96
2023-05-01T12:17:32.411Z,38.89
2023-05-01T12:18:32.286Z,38.83
2023-05-01T12:19:32.294Z,38.79
2023-05-01T12:20:32.277Z,38.76
2023-05-01T12:21:32.376Z,38.74
2023-05-01T12:22:32.278Z,38.78
2023-05-01T12:23:32.271Z,38.76
2023-05-01T12:24:32.296Z,38.74
2023-05-01T12:25:32.238Z,38.77
2023-05-01T12:26:32.238Z,38.78
2023-05-01T12:27:32.209Z,38.76
2023-05-01T12:28:32.224Z,38.75
2023-05-01T12:29:32.203Z,38.76
2023-05-01T12:30:32.229Z,38.73
2023-05-01T12:31:32.283Z,38.70
2023-05-01T12:32:32.205Z,38.69
2023-05-01T12:33:32.168Z,38.63
2023-05-01T12:34:32.195Z,38.63
2023-05-01T12:35:32.210Z,38.60
2023-05-01T12:36:32.171Z,38.54
2023-05-01T12:37:32.171Z,38.53
2023-05-01T12:38:32.162Z,38.49
2023-05-01T12:39:32.187Z,38.46
2023-05-01T12:40:32.138Z,38.40
2023-05-01T12:41:32.152Z,38.37
2023-05-01T12:42:32.136Z,38.37
2023-05-01T12:43:32.132Z,38.35
2023-05-01T12:44:32.137Z,38.30
2023-05-01T12:45:32.144Z,38.32
2023-05-01T12:46:32.188Z,38.25
2023-05-01T12:47:32.090Z,38.18
2023-05-01T12:48:32.097Z,38.13
2023-05-01T12:49:32.109Z,38.12
2023-05-01T12:50:32.085Z,38.08
2023-05-01T12:51:32.082Z,38.05
2023-05-01T12:52:32.053Z,38.04
2023-05-01T12:53:32.067Z,37.98